Time;durP1;ratioP1;P1;durP2;ratioP2;P2;SDS_P1;SDS_P2;PMS_P1;PMS_P2;Temp;Humidity;BMP_temperature;BMP_pressure;BME280_temperature;BME280_humidity;BME280_pressure;Samples;Min_cycle;Max_cycle;Signal;HPM_P1;HPM_P2
2023/04/21 00:00:09;;;;;;;0.60;0.60;;;;;;;4.42;99.44;96504.66;29395;219;63009;-57
2023/04/21 00:00:43;;;;;;;0.60;0.60;;;;;;;4.44;99.20;96510.59;29395;233;63005;-57
2023/04/21 00:01:15;;;;;;;0.50;0.50;;;;;;;4.41;98.85;96511.13;29395;219;63009;-57
2023/04/21 00:01:46;;;;;;;0.50;0.50;;;;;;;4.41;98.92;96502.25;29395;244;63005;-57
2023/04/21 00:02:17;;;;;;;0.50;0.50;;;;;;;4.40;98.86;96508.69;29395;205;63009;-56
2023/04/21 00:02:49;;;;;;;0.60;0.60;;;;;;;4.41;98.65;96503.06;29395;236;63005;-57
2023/04/21 00:03:25;;;;;;;0.50;0.50;;;;;;;4.42;99.01;96510.03;29395;202;63004;-57
2023/04/21 00:04:00;;;;;;;0.50;0.50;;;;;;;4.44;98.60;96505.22;29395;229;63004;-57
2023/04/21 00:04:31;;;;;;;0.60;0.60;;;;;;;4.45;98.54;96506.03;29395;212;63009;-58
2023/04/21 00:05:03;;;;;;;0.50;0.50;;;;;;;4.46;98.24;96508.44;29394;225;64009;-56
2023/04/21 00:05:34;;;;;;;0.60;0.60;;;;;;;4.46;98.46;96513.81;29395;219;63009;-56
2023/04/21 00:06:06;;;;;;;0.60;0.60;;;;;;;4.46;98.07;96513.81;29395;236;63004;-56
2023/04/21 00:06:37;;;;;;;0.60;0.60;;;;;;;4.44;98.32;96515.97;29395;199;63009;-57
2023/04/21 00:07:08;;;;;;;0.50;0.50;;;;;;;4.43;98.21;96508.97;29395;219;63007;-57
2023/04/21 00:07:40;;;;;;;0.50;0.50;;;;;;;4.46;98.33;96510.31;29395;209;63015;-57
2023/04/21 00:08:11;;;;;;;0.50;0.50;;;;;;;4.47;97.93;96502.00;29395;265;63005;-58
2023/04/21 00:08:43;;;;;;;0.50;0.50;;;;;;;4.50;97.82;96506.06;29395;230;63014;-60
2023/04/21 00:09:14;;;;;;;0.50;0.50;;;;;;;4.50;97.59;96501.47;29395;299;63005;-57
2023/04/21 00:09:51;;;;;;;0.60;0.60;;;;;;;4.52;97.44;96507.38;29394;196;64013;-56
2023/04/21 00:10:22;;;;;;;0.60;0.60;;;;;;;4.52;97.35;96502.00;29395;260;63005;-56
2023/04/21 00:10:54;;;;;;;0.60;0.60;;;;;;;4.52;97.42;96507.38;29395;257;63009;-60
2023/04/21 00:11:25;;;;;;;0.52;0.52;;;;;;;4.54;97.54;96504.41;29395;220;63008;-58
2023/04/21 00:11:57;;;;;;;0.60;0.60;;;;;;;4.55;97.17;96512.22;29395;238;63009;-57
2023/04/21 00:12:28;;;;;;;0.50;0.50;;;;;;;4.56;97.24;96508.47;29394;202;64009;-57
2023/04/21 00:12:59;;;;;;;0.50;0.50;;;;;;;4.57;97.15;96504.72;29395;227;63009;-56
2023/04/21 00:13:31;;;;;;;0.60;0.60;;;;;;;4.57;97.13;96510.09;29395;206;63004;-57
2023/04/21 00:14:02;;;;;;;0.60;0.60;;;;;;;4.59;97.06;96502.56;29394;248;64014;-57
2023/04/21 00:14:34;;;;;;;0.60;0.60;;;;;;;4.60;96.92;96504.19;29395;219;63005;-57
2023/04/21 00:15:07;;;;;;;0.60;0.60;;;;;;;4.61;96.67;96505.78;29395;246;63009;-56
2023/04/21 00:15:39;;;;;;;0.50;0.50;;;;;;;4.62;96.05;96503.91;29395;282;63005;-57
2023/04/21 00:16:11;;;;;;;0.60;0.60;;;;;;;4.64;96.29;96510.66;29395;231;63009;-57
2023/04/21 00:16:44;;;;;;;0.50;0.50;;;;;;;4.65;95.67;96512.25;29394;218;64009;-56
2023/04/21 00:17:15;;;;;;;0.60;0.60;;;;;;;4.66;96.12;96503.13;29395;265;63009;-57
2023/04/21 00:17:46;;;;;;;0.60;0.60;;;;;;;4.66;95.75;96503.13;29395;209;63005;-57
2023/04/21 00:18:18;;;;;;;0.60;0.60;;;;;;;4.67;95.81;96502.06;29395;209;63009;-56
2023/04/21 00:18:50;;;;;;;0.57;0.57;;;;;;;4.67;95.97;96504.75;29395;289;63004;-57
2023/04/21 00:19:24;;;;;;;0.50;0.50;;;;;;;4.67;95.54;96503.94;29395;211;63009;-58
2023/04/21 00:19:55;;;;;;;0.50;0.50;;;;;;;4.67;96.04;96510.13;29395;204;63008;-58
2023/04/21 00:20:26;;;;;;;0.50;0.50;;;;;;;4.66;95.96;96516.56;29394;226;64013;-57
2023/04/21 00:20:58;;;;;;;0.50;0.50;;;;;;;4.65;95.75;96501.50;29395;224;63010;-57
2023/04/21 00:21:29;;;;;;;0.50;0.50;;;;;;;4.64;96.13;96510.66;29395;229;63008;-57
2023/04/21 00:22:02;;;;;;;0.57;0.57;;;;;;;4.64;95.77;96515.22;29395;205;63005;-57
2023/04/21 00:22:34;;;;;;;0.55;0.55;;;;;;;4.63;96.10;96503.66;29395;211;63009;-57
2023/04/21 00:23:05;;;;;;;0.60;0.60;;;;;;;4.63;96.14;96509.03;29395;197;63014;-57
2023/04/21 00:23:36;;;;;;;0.60;0.60;;;;;;;4.64;95.96;96504.47;29395;225;63009;-57
2023/04/21 00:24:08;;;;;;;0.60;0.60;;;;;;;4.63;96.06;96509.03;29395;202;63005;-57
2023/04/21 00:24:40;;;;;;;0.50;0.50;;;;;;;4.65;95.57;96498.81;29395;231;63009;-57
2023/04/21 00:25:11;;;;;;;0.50;0.50;;;;;;;4.66;95.32;96502.31;29394;229;64009;-60
2023/04/21 00:25:43;;;;;;;0.60;0.60;;;;;;;4.64;95.35;96499.91;29394;221;64013;-57
2023/04/21 00:26:14;;;;;;;0.57;0.57;;;;;;;4.63;95.51;96498.28;29395;202;63004;-57
2023/04/21 00:26:46;;;;;;;0.60;0.60;;;;;;;4.62;95.63;96496.66;29395;224;63009;-57
2023/04/21 00:27:17;;;;;;;0.60;0.60;;;;;;;4.60;95.77;96504.19;29395;241;63004;-56
2023/04/21 00:27:49;;;;;;;0.60;0.60;;;;;;;4.59;95.90;96505.25;29395;235;63009;-56
2023/04/21 00:28:20;;;;;;;0.60;0.60;;;;;;;4.58;96.32;96506.31;29395;234;63015;-57
2023/04/21 00:28:52;;;;;;;0.50;0.50;;;;;;;4.57;96.50;96504.72;29395;213;63008;-56
2023/04/21 00:29:24;;;;;;;0.60;0.60;;;;;;;4.58;96.44;96510.87;29395;212;63005;-57
2023/04/21 00:29:57;;;;;;;0.50;0.50;;;;;;;4.60;96.67;96503.37;29395;215;63009;-62
2023/04/21 00:30:29;;;;;;;0.60;0.60;;;;;;;4.61;96.99;96505.78;29395;221;63005;-58
2023/04/21 00:31:02;;;;;;;0.60;0.60;;;;;;;4.61;96.81;96500.41;29394;205;64013;-57
2023/04/21 00:31:33;;;;;;;0.60;0.60;;;;;;;4.61;96.35;96499.62;29395;210;63005;-56
2023/04/21 00:32:08;;;;;;;0.60;0.60;;;;;;;4.60;96.36;96504.19;29395;210;63009;-57
2023/04/21 00:32:40;;;;;;;0.60;0.60;;;;;;;4.62;96.47;96499.34;29395;247;63004;-57
2023/04/21 00:33:12;;;;;;;0.55;0.55;;;;;;;4.62;96.12;96501.22;29395;228;63009;-57
2023/04/21 00:33:43;;;;;;;0.60;0.60;;;;;;;4.61;96.00;96495.03;29395;213;63004;-56
2023/04/21 00:34:14;;;;;;;0.55;0.55;;;;;;;4.63;96.25;96492.91;29395;228;63009;-57
2023/04/21 00:34:46;;;;;;;0.60;0.60;;;;;;;4.64;96.22;96499.09;29395;211;63004;-57
2023/04/21 00:35:17;;;;;;;0.60;0.60;;;;;;;4.62;96.29;96493.97;29395;199;63018;-61
2023/04/21 00:35:48;;;;;;;0.60;0.60;;;;;;;4.64;96.06;96493.72;29395;202;63004;-57
2023/04/21 00:36:19;;;;;;;0.60;0.60;;;;;;;4.63;95.56;96503.66;29394;213;64013;-57
2023/04/21 00:36:50;;;;;;;0.60;0.60;;;;;;;4.63;95.77;96487.53;29395;207;63005;-57
2023/04/21 00:37:21;;;;;;;0.60;0.60;;;;;;;4.63;96.22;96500.97;29395;221;63009;-57
2023/04/21 00:37:53;;;;;;;0.60;0.60;;;;;;;4.64;95.90;96499.09;29395;230;63005;-57
2023/04/21 00:38:24;;;;;;;0.50;0.50;;;;;;;4.63;96.23;96492.91;29394;208;64013;-57
2023/04/21 00:38:56;;;;;;;0.60;0.60;;;;;;;4.64;96.12;96493.72;29395;293;63005;-57
2023/04/21 00:39:27;;;;;;;0.60;0.60;;;;;;;4.64;96.01;96499.91;29395;252;63009;-56
2023/04/21 00:39:58;;;;;;;0.60;0.60;;;;;;;4.65;96.12;96489.97;29395;196;63005;-58
2023/04/21 00:40:30;;;;;;;0.60;0.60;;;;;;;4.64;96.43;96488.34;29395;227;63009;-56
2023/04/21 00:41:01;;;;;;;0.60;0.60;;;;;;;4.63;96.15;96492.91;29395;265;63007;-57
2023/04/21 00:41:35;;;;;;;0.60;0.60;;;;;;;4.63;96.31;96487.53;29395;257;63009;-57
2023/04/21 00:42:07;;;;;;;0.55;0.55;;;;;;;4.62;96.06;96491.28;29394;290;64009;-59
2023/04/21 00:42:38;;;;;;;0.60;0.60;;;;;;;4.62;96.50;96488.59;29394;248;64013;-57
2023/04/21 00:43:10;;;;;;;0.60;0.60;;;;;;;4.62;96.38;96491.28;29395;279;63004;-57
2023/04/21 00:44:01;;;;;;;0.60;0.60;;;;;;;4.63;96.13;96484.84;29395;245;63009;-57
2023/04/21 00:44:32;;;;;;;0.60;0.60;;;;;;;4.63;96.04;96495.59;29395;279;63005;-57
2023/04/21 00:45:06;;;;;;;0.50;0.50;;;;;;;4.62;96.22;96485.91;29395;202;63009;-58
2023/04/21 00:45:37;;;;;;;0.50;0.50;;;;;;;4.62;96.34;96487.78;29395;216;63005;-57
2023/04/21 00:46:08;;;;;;;0.50;0.50;;;;;;;4.61;96.54;96487.00;29394;298;64013;-57
2023/04/21 00:46:42;;;;;;;0.50;0.50;;;;;;;4.61;96.54;96489.66;29395;270;63005;-57
2023/04/21 00:47:13;;;;;;;0.50;0.50;;;;;;;4.61;97.08;96483.50;29395;231;63009;-56
2023/04/21 00:47:44;;;;;;;0.60;0.60;;;;;;;4.60;96.68;96488.06;29395;219;63004;-57
2023/04/21 00:48:16;;;;;;;0.50;0.50;;;;;;;4.60;97.22;96488.06;29395;203;63009;-60
2023/04/21 00:48:47;;;;;;;0.60;0.60;;;;;;;4.59;96.96;96491.81;29395;240;63007;-56
2023/04/21 00:49:19;;;;;;;0.60;0.60;;;;;;;4.59;97.28;96483.75;29394;233;64013;-57
2023/04/21 00:49:50;;;;;;;0.60;0.60;;;;;;;4.59;97.51;96489.13;29395;227;63004;-57
2023/04/21 00:50:22;;;;;;;0.50;0.50;;;;;;;4.60;97.74;96489.94;29395;204;63008;-58
2023/04/21 00:50:54;;;;;;;0.60;0.60;;;;;;;4.61;97.29;96484.31;29395;274;63016;-57
2023/04/21 00:51:30;;;;;;;0.50;0.50;;;;;;;4.63;97.02;96484.84;29394;212;64014;-59
2023/04/21 00:52:04;;;;;;;0.50;0.50;;;;;;;4.65;96.48;96480.00;29395;233;63005;-58
2023/04/21 00:52:36;;;;;;;0.60;0.60;;;;;;;4.65;96.34;96482.69;29395;218;63009;-57
2023/04/21 00:53:08;;;;;;;0.50;0.50;;;;;;;4.63;96.44;96482.16;29395;210;63005;-56
2023/04/21 00:53:40;;;;;;;0.60;0.60;;;;;;;4.63;96.36;96484.84;29395;229;63009;-58
2023/04/21 00:54:12;;;;;;;0.60;0.60;;;;;;;4.62;96.23;96485.91;29395;214;63010;-56
2023/04/21 00:54:44;;;;;;;0.50;0.50;;;;;;;4.61;96.26;96478.94;29395;202;63023;-56
2023/04/21 00:55:16;;;;;;;0.50;0.50;;;;;;;4.60;96.37;96476.50;29395;258;63004;-58
2023/04/21 00:55:49;;;;;;;0.50;0.50;;;;;;;4.59;96.55;96474.88;29395;203;63009;-57
2023/04/21 00:56:21;;;;;;;0.60;0.60;;;;;;;4.57;96.60;96483.22;29395;240;63004;-57
2023/04/21 00:56:57;;;;;;;0.50;0.50;;;;;;;4.55;96.82;96479.97;29394;235;64013;-56
2023/04/21 00:57:30;;;;;;;0.60;0.60;;;;;;;4.53;96.93;96481.31;29395;209;63004;-57
2023/04/21 00:58:02;;;;;;;0.60;0.60;;;;;;;4.51;97.02;96476.19;29395;249;63008;-58
2023/04/21 00:58:36;;;;;;;0.60;0.60;;;;;;;4.50;97.57;96485.38;29395;258;63005;-56
2023/04/21 00:59:07;;;;;;;0.60;0.60;;;;;;;4.48;97.30;96479.44;29395;218;63009;-57
2023/04/21 00:59:38;;;;;;;0.60;0.60;;;;;;;4.48;97.36;96479.44;29395;203;63005;-57
2023/04/21 01:00:11;;;;;;;0.60;0.60;;;;;;;4.49;97.56;96491.81;29395;209;63009;-57
2023/04/21 01:00:45;;;;;;;0.50;0.50;;;;;;;4.48;97.76;96484.00;29395;197;63005;-56
2023/04/21 01:01:17;;;;;;;0.60;0.60;;;;;;;4.47;97.76;96483.19;29395;205;63009;-57
2023/04/21 01:01:49;;;;;;;0.60;0.60;;;;;;;4.46;97.63;96476.22;29395;350;63005;-57
2023/04/21 01:02:21;;;;;;;0.50;0.50;;;;;;;4.47;98.02;96477.81;29394;199;64013;-56
2023/04/21 01:02:53;;;;;;;0.60;0.60;;;;;;;4.48;97.87;96482.13;29395;290;63018;-57
2023/04/21 01:03:24;;;;;;;0.60;0.60;;;;;;;4.47;97.65;96477.03;29395;243;63009;-57
2023/04/21 01:03:59;;;;;;;0.60;0.60;;;;;;;4.48;97.80;96484.00;29395;224;63004;-57
2023/04/21 01:04:38;;;;;;;0.60;0.60;;;;;;;4.48;97.32;96479.44;29395;373;63009;-59
2023/04/21 01:05:15;;;;;;;0.60;0.60;;;;;;;4.48;97.51;96474.06;29395;247;63004;-57
2023/04/21 01:05:46;;;;;;;0.50;0.50;;;;;;;4.48;97.47;96476.75;29395;206;63018;-57
2023/04/21 01:06:18;;;;;;;0.50;0.50;;;;;;;4.48;97.55;96478.63;29395;234;63005;-57
2023/04/21 01:06:50;;;;;;;0.50;0.50;;;;;;;4.49;97.75;96472.19;29395;296;63009;-57
2023/04/21 01:07:24;;;;;;;0.60;0.60;;;;;;;4.49;97.71;96477.56;29394;197;64009;-57
2023/04/21 01:07:55;;;;;;;0.60;0.60;;;;;;;4.49;97.32;96475.69;29395;228;63009;-57
2023/04/21 01:08:26;;;;;;;0.60;0.60;;;;;;;4.50;97.50;96476.50;29395;246;63005;-57
2023/04/21 01:08:58;;;;;;;0.60;0.60;;;;;;;4.49;97.00;96475.69;29395;210;63024;-57
2023/04/21 01:09:32;;;;;;;0.60;0.60;;;;;;;4.47;97.07;96480.50;29395;305;63005;-57
2023/04/21 01:10:05;;;;;;;0.50;0.50;;;;;;;4.46;97.13;96473.53;29395;289;63009;-57
2023/04/21 01:10:36;;;;;;;0.50;0.50;;;;;;;4.46;97.12;96470.84;29395;353;63004;-57
2023/04/21 01:11:12;;;;;;;0.50;0.50;;;;;;;4.46;97.65;96470.84;29395;216;63004;-56
2023/04/21 01:12:07;;;;;;;0.60;0.60;;;;;;;4.46;97.57;96475.41;29395;354;63004;-57
2023/04/21 01:12:45;;;;;;;0.50;0.50;;;;;;;4.47;97.29;96471.66;29394;266;64009;-58
2023/04/21 01:13:21;;;;;;;0.60;0.60;;;;;;;4.47;97.14;96468.97;29395;306;63008;-57
2023/04/21 01:13:53;;;;;;;0.50;0.50;;;;;;;4.47;97.27;96469.78;29395;240;63019;-57
2023/04/21 01:14:25;;;;;;;0.60;0.60;;;;;;;4.48;97.65;96474.06;29395;262;63009;-58
2023/04/21 01:14:57;;;;;;;0.60;0.60;;;;;;;4.48;97.18;96473.25;29395;214;63005;-56
2023/04/21 01:15:30;;;;;;;0.52;0.52;;;;;;;4.46;96.92;96470.03;29395;214;63017;-57
2023/04/21 01:16:14;;;;;;;0.60;0.60;;;;;;;4.44;97.20;96475.66;29395;256;63005;-57
2023/04/21 01:16:48;;;;;;;0.60;0.60;;;;;;;4.40;97.30;96471.09;29394;257;64013;-56
2023/04/21 01:17:19;;;;;;;0.50;0.50;;;;;;;4.40;97.43;96481.81;29395;264;63009;-58
2023/04/21 01:17:53;;;;;;;0.60;0.60;;;;;;;4.38;97.59;96468.66;29395;199;63009;-57
2023/04/21 01:18:24;;;;;;;0.60;0.60;;;;;;;4.37;97.61;96472.41;29395;290;63004;-57
2023/04/21 01:18:55;;;;;;;0.57;0.57;;;;;;;4.36;97.54;96470.78;29395;242;63009;-56
2023/04/21 01:19:31;;;;;;;0.60;0.60;;;;;;;4.35;97.76;96463.81;29395;234;63009;-57
2023/04/21 01:20:08;;;;;;;0.60;0.60;;;;;;;4.35;97.66;96474.56;29394;196;64013;-57
2023/04/21 01:20:40;;;;;;;0.60;0.60;;;;;;;4.34;97.92;96476.44;29395;212;63004;-57
2023/04/21 01:21:12;;;;;;;0.50;0.50;;;;;;;4.34;97.68;96470.25;29394;208;64014;-57
2023/04/21 01:21:43;;;;;;;0.55;0.55;;;;;;;4.32;98.04;96461.66;29395;218;63012;-56
2023/04/21 01:22:15;;;;;;;0.60;0.60;;;;;;;4.32;98.27;96458.97;29395;356;63009;-56
2023/04/21 01:22:48;;;;;;;0.60;0.60;;;;;;;4.29;98.37;96460.28;29395;200;63005;-57
2023/04/21 01:23:20;;;;;;;0.50;0.50;;;;;;;4.29;98.10;96470.22;29394;210;64013;-57
2023/04/21 01:23:52;;;;;;;0.60;0.60;;;;;;;4.29;98.17;96464.84;29395;270;63000;-57
2023/04/21 01:24:24;;;;;;;0.60;0.60;;;;;;;4.27;98.26;96467.00;29395;234;63009;-57
2023/04/21 01:24:55;;;;;;;0.50;0.50;;;;;;;4.25;98.65;96466.44;29395;205;63005;-56
2023/04/21 01:25:27;;;;;;;0.50;0.50;;;;;;;4.22;98.33;96472.34;29395;202;63009;-57
2023/04/21 01:26:00;;;;;;;0.60;0.60;;;;;;;4.19;98.38;96468.31;29395;209;63004;-61
2023/04/21 01:26:34;;;;;;;0.60;0.60;;;;;;;4.18;98.38;96466.69;29395;250;63009;-57
2023/04/21 01:27:13;;;;;;;0.60;0.60;;;;;;;4.18;98.71;96476.62;29395;239;63004;-56
2023/04/21 01:27:45;;;;;;;0.55;0.55;;;;;;;4.16;98.66;96470.72;29395;202;63009;-58
2023/04/21 01:28:24;;;;;;;0.60;0.60;;;;;;;4.14;98.84;96468.31;29395;218;63004;-57
2023/04/21 01:28:56;;;;;;;0.50;0.50;;;;;;;4.13;98.89;96463.19;29394;207;64014;-57
2023/04/21 01:29:31;;;;;;;0.50;0.50;;;;;;;4.11;98.91;96463.47;29395;215;63005;-57
2023/04/21 01:30:06;;;;;;;0.60;0.60;;;;;;;4.11;98.91;96462.66;29395;320;63009;-57
2023/04/21 01:30:37;;;;;;;0.55;0.55;;;;;;;4.09;98.90;96451.38;29395;403;63012;-58
2023/04/21 01:31:09;;;;;;;0.50;0.50;;;;;;;4.08;98.76;96465.84;29395;213;63009;-57
2023/04/21 01:31:41;;;;;;;0.60;0.60;;;;;;;4.03;98.97;96456.72;29395;208;63005;-57
2023/04/21 01:32:19;;;;;;;0.60;0.60;;;;;;;4.01;99.27;96464.22;29395;229;63009;-58
2023/04/21 01:32:50;;;;;;;0.60;0.60;;;;;;;3.98;99.20;96470.09;29394;264;64009;-56
2023/04/21 01:33:22;;;;;;;0.60;0.60;;;;;;;3.96;99.19;96461.50;29395;241;63009;-56
2023/04/21 01:33:54;;;;;;;0.60;0.60;;;;;;;3.95;99.30;96470.63;29395;223;63004;-57
2023/04/21 01:34:25;;;;;;;0.60;0.60;;;;;;;3.96;99.77;96471.44;29395;206;63009;-57
2023/04/21 01:34:58;;;;;;;0.60;0.60;;;;;;;3.94;99.69;96471.69;29395;196;63004;-57
2023/04/21 01:35:30;;;;;;;0.60;0.60;;;;;;;3.95;99.82;96470.63;29394;199;64013;-57
2023/04/21 01:36:01;;;;;;;0.50;0.50;;;;;;;3.95;100.00;96478.66;29395;202;63004;-57
2023/04/21 01:36:32;;;;;;;0.80;0.80;;;;;;;3.96;100.00;96476.78;29395;228;63009;-56
2023/04/21 01:37:08;;;;;;;0.70;0.70;;;;;;;3.95;100.00;96475.97;29395;336;63005;-57
2023/04/21 01:37:39;;;;;;;0.50;0.50;;;;;;;3.95;99.70;96470.63;29395;206;63009;-57
2023/04/21 01:38:11;;;;;;;0.60;0.60;;;;;;;3.94;99.66;96474.38;29395;204;63005;-57
2023/04/21 01:38:42;;;;;;;0.50;0.50;;;;;;;3.94;99.93;96477.06;29395;204;63009;-57
2023/04/21 01:39:14;;;;;;;0.60;0.60;;;;;;;3.93;99.85;96471.94;29395;210;63005;-57
2023/04/21 01:39:53;;;;;;;0.60;0.60;;;;;;;3.91;99.70;96485.63;29395;222;63009;-57
2023/04/21 01:40:24;;;;;;;0.60;0.60;;;;;;;3.91;99.73;96477.56;29395;197;63004;-56
2023/04/21 01:40:55;;;;;;;0.60;0.60;;;;;;;3.92;99.88;96481.88;29394;267;64013;-57
2023/04/21 01:41:26;;;;;;;1.08;1.08;;;;;;;3.92;99.88;96476.50;29395;226;63004;-58
2023/04/21 01:41:58;;;;;;;0.60;0.60;;;;;;;3.92;99.78;96473.81;29395;205;63009;-57
2023/04/21 01:42:30;;;;;;;0.60;0.60;;;;;;;3.93;100.00;96475.44;29395;230;63004;-56
2023/04/21 01:43:02;;;;;;;0.50;0.50;;;;;;;3.93;99.88;96467.38;29395;196;63008;-56
2023/04/21 01:43:34;;;;;;;0.60;0.60;;;;;;;3.94;100.00;96469.00;29395;298;63004;-57
2023/04/21 01:44:06;;;;;;;0.50;0.50;;;;;;;3.97;100.00;96473.84;29395;203;63020;-57
2023/04/21 01:44:38;;;;;;;0.60;0.60;;;;;;;3.98;100.00;96470.09;29395;203;63005;-56
2023/04/21 01:45:12;;;;;;;0.50;0.50;;;;;;;3.99;99.69;96463.66;29395;237;63009;-57
2023/04/21 01:45:43;;;;;;;0.50;0.50;;;;;;;3.99;99.70;96460.97;29395;345;63005;-61
2023/04/21 01:46:18;;;;;;;0.50;0.50;;;;;;;4.00;99.54;96467.16;29394;234;64013;-56
2023/04/21 01:46:49;;;;;;;0.60;0.60;;;;;;;4.00;99.37;96467.16;29395;274;63005;-57
2023/04/21 01:47:23;;;;;;;0.60;0.60;;;;;;;4.00;99.80;96467.97;29395;219;63009;-57
2023/04/21 01:47:54;;;;;;;0.52;0.52;;;;;;;4.01;100.00;96468.78;29395;199;63004;-57
2023/04/21 01:48:25;;;;;;;0.60;0.60;;;;;;;4.01;100.00;96466.91;29395;212;63009;-58
2023/04/21 01:48:56;;;;;;;0.60;0.60;;;;;;;4.02;99.89;96475.75;29395;197;63004;-56
2023/04/21 01:49:27;;;;;;;0.50;0.50;;;;;;;4.00;99.82;96470.66;29395;282;63009;-56
2023/04/21 01:50:02;;;;;;;0.60;0.60;;;;;;;4.00;99.81;96476.03;29395;203;63004;-57
2023/04/21 01:50:34;;;;;;;0.60;0.60;;;;;;;4.00;99.77;96473.34;29395;222;63009;-57
2023/04/21 01:51:05;;;;;;;0.60;0.60;;;;;;;4.00;99.59;96477.91;29395;240;63005;-57
2023/04/21 01:51:38;;;;;;;0.60;0.60;;;;;;;3.99;99.15;96471.72;29394;221;64014;-56
2023/04/21 01:52:10;;;;;;;0.52;0.52;;;;;;;3.99;99.04;96470.91;29394;203;64005;-57
2023/04/21 01:52:41;;;;;;;0.60;0.60;;;;;;;3.98;99.43;96480.84;29395;207;63020;-56
2023/04/21 01:53:13;;;;;;;0.50;0.50;;;;;;;3.98;99.05;96480.03;29395;258;63008;-57
2023/04/21 01:53:44;;;;;;;0.60;0.60;;;;;;;3.96;98.97;96479.47;29395;202;63009;-58
2023/04/21 01:54:15;;;;;;;0.60;0.60;;;;;;;3.96;99.12;96476.78;29395;265;63005;-57
2023/04/21 01:54:46;;;;;;;0.60;0.60;;;;;;;3.95;99.52;96470.63;29395;239;63009;-58
2023/04/21 01:55:21;;;;;;;0.57;0.57;;;;;;;3.94;99.35;96474.38;29395;198;63004;-58
2023/04/21 01:55:53;;;;;;;0.60;0.60;;;;;;;3.93;99.46;96472.75;29395;239;63009;-58
2023/04/21 01:56:24;;;;;;;0.60;0.60;;;;;;;3.92;99.52;96476.50;29395;203;63004;-56
2023/04/21 01:56:56;;;;;;;0.50;0.50;;;;;;;3.92;99.32;96475.69;29394;290;64013;-61
2023/04/21 01:57:31;;;;;;;0.60;0.60;;;;;;;3.92;99.55;96481.06;29395;211;63004;-57
2023/04/21 01:58:03;;;;;;;0.60;0.60;;;;;;;3.93;99.74;96477.31;29395;211;63009;-56
2023/04/21 01:58:34;;;;;;;0.60;0.60;;;;;;;3.92;99.75;96476.50;29394;214;64009;-57
2023/04/21 01:59:06;;;;;;;0.60;0.60;;;;;;;3.91;99.88;96474.88;29395;215;63009;-57
2023/04/21 01:59:39;;;;;;;0.60;0.60;;;;;;;3.91;99.68;96474.88;29395;211;63005;-56
2023/04/21 02:00:11;;;;;;;0.50;0.50;;;;;;;3.91;100.00;96474.06;29395;212;63009;-57
2023/04/21 02:00:42;;;;;;;0.50;0.50;;;;;;;3.92;99.58;96465.78;29395;202;63005;-57
2023/04/21 02:01:13;;;;;;;0.60;0.60;;;;;;;3.91;100.00;96474.88;29395;208;63009;-56
2023/04/21 02:01:45;;;;;;;0.60;0.60;;;;;;;3.91;99.80;96469.53;29395;293;63005;-56
2023/04/21 02:02:16;;;;;;;0.60;0.60;;;;;;;3.89;100.00;96482.38;29395;307;63009;-57
2023/04/21 02:02:48;;;;;;;0.60;0.60;;;;;;;3.90;100.00;96475.97;29395;296;63004;-57
2023/04/21 02:03:19;;;;;;;0.50;0.50;;;;;;;3.91;100.00;96469.53;29395;247;63025;-57
2023/04/21 02:03:51;;;;;;;0.50;0.50;;;;;;;3.92;100.00;96476.50;29394;223;64009;-57
2023/04/21 02:04:22;;;;;;;0.60;0.60;;;;;;;3.93;100.00;96478.13;29394;222;64013;-57
2023/04/21 02:04:53;;;;;;;0.60;0.60;;;;;;;3.93;100.00;96470.06;29395;222;63004;-56
2023/04/21 02:05:25;;;;;;;0.50;0.50;;;;;;;3.93;100.00;96472.75;29395;227;63008;-57
2023/04/21 02:05:56;;;;;;;0.50;0.50;;;;;;;3.95;100.00;96475.19;29395;217;63005;-57
2023/04/21 02:06:28;;;;;;;0.50;0.50;;;;;;;3.95;100.00;96465.25;29395;204;63009;-57
2023/04/21 02:06:59;;;;;;;0.50;0.50;;;;;;;3.96;100.00;96476.78;29395;219;63005;-60
2023/04/21 02:07:31;;;;;;;0.50;0.50;;;;;;;3.96;100.00;96466.88;29395;322;63009;-57
2023/04/21 02:08:03;;;;;;;0.50;0.50;;;;;;;3.97;100.00;96467.69;29395;271;63005;-57
2023/04/21 02:08:37;;;;;;;0.60;0.60;;;;;;;3.97;100.00;96473.84;29395;234;63009;-57
2023/04/21 02:09:09;;;;;;;0.60;0.60;;;;;;;3.97;100.00;96468.47;29395;197;63005;-57
2023/04/21 02:09:41;;;;;;;0.60;0.60;;;;;;;3.97;100.00;96473.03;29394;249;64013;-58
2023/04/21 02:10:13;;;;;;;0.50;0.50;;;;;;;3.96;100.00;96468.75;29395;229;63004;-57
2023/04/21 02:10:44;;;;;;;0.60;0.60;;;;;;;3.95;100.00;96470.63;29395;198;63009;-57
2023/04/21 02:11:15;;;;;;;0.60;0.60;;;;;;;3.95;100.00;96467.94;29395;204;63004;-57
2023/04/21 02:11:46;;;;;;;0.50;0.50;;;;;;;3.94;100.00;96458.25;29395;203;63009;-58
2023/04/21 02:12:18;;;;;;;0.60;0.60;;;;;;;3.94;100.00;96468.19;29395;248;63004;-58
2023/04/21 02:12:49;;;;;;;0.60;0.60;;;;;;;3.93;100.00;96462.00;29394;248;64008;-57
2023/04/21 02:13:21;;;;;;;0.52;0.52;;;;;;;3.93;100.00;96472.75;29395;203;63005;-58
2023/04/21 02:13:54;;;;;;;0.50;0.50;;;;;;;3.93;100.00;96463.91;29395;220;63009;-56
2023/04/21 02:14:25;;;;;;;0.50;0.50;;;;;;;3.93;100.00;96467.38;29395;227;63005;-57
2023/04/21 02:14:56;;;;;;;0.50;0.50;;;;;;;3.93;100.00;96466.56;29394;219;64013;-57
2023/04/21 02:15:27;;;;;;;0.50;0.50;;;;;;;3.93;100.00;96467.38;29395;230;63005;-57
2023/04/21 02:15:59;;;;;;;0.55;0.55;;;;;;;3.93;100.00;96464.69;29395;281;63009;-56
2023/04/21 02:16:31;;;;;;;0.55;0.55;;;;;;;3.93;100.00;96467.38;29395;373;63005;-57
2023/04/21 02:17:03;;;;;;;0.60;0.60;;;;;;;3.93;100.00;96467.38;29395;233;63009;-57
2023/04/21 02:17:35;;;;;;;0.50;0.50;;;;;;;3.95;100.00;96464.44;29395;256;63004;-57
2023/04/21 02:18:07;;;;;;;0.50;0.50;;;;;;;3.94;100.00;96463.63;29395;196;63009;-56
2023/04/21 02:18:38;;;;;;;0.50;0.50;;;;;;;3.92;100.00;96464.97;29395;234;63004;-57
2023/04/21 02:19:10;;;;;;;0.60;0.60;;;;;;;3.92;100.00;96463.09;29396;206;63009;-57
2023/04/21 02:19:41;;;;;;;0.55;0.55;;;;;;;3.91;100.00;96464.16;29396;223;63000;-57
2023/04/21 02:20:12;;;;;;;0.60;0.60;;;;;;;3.91;100.00;96463.34;29395;237;64013;-56
2023/04/21 02:20:44;;;;;;;0.50;0.50;;;;;;;3.90;100.00;96457.16;29396;214;63005;-57
2023/04/21 02:21:16;;;;;;;0.60;0.60;;;;;;;3.89;100.00;96465.47;29396;279;63009;-57
2023/04/21 02:21:51;;;;;;;0.50;0.50;;;;;;;3.90;100.00;96461.72;29396;214;63005;-58
2023/04/21 02:22:23;;;;;;;0.60;0.60;;;;;;;3.90;100.00;96462.53;29396;213;63011;-57
2023/04/21 02:22:54;;;;;;;0.60;0.60;;;;;;;3.90;100.00;96461.72;29396;246;63005;-58
2023/04/21 02:23:26;;;;;;;0.60;0.60;;;;;;;3.91;100.00;96460.66;29396;391;63009;-58
2023/04/21 02:23:59;;;;;;;0.60;0.60;;;;;;;3.89;100.00;96452.88;29396;238;63005;-57
2023/04/21 02:24:31;;;;;;;0.52;0.52;;;;;;;3.91;100.00;96466.03;29396;229;63009;-57
2023/04/21 02:25:04;;;;;;;0.60;0.60;;;;;;;3.91;100.00;96463.34;29396;203;63004;-58
2023/04/21 02:25:35;;;;;;;0.50;0.50;;;;;;;3.91;100.00;96469.53;29395;216;64013;-57
2023/04/21 02:26:07;;;;;;;0.60;0.60;;;;;;;3.90;100.00;96462.53;29396;293;63004;-57
2023/04/21 02:26:38;;;;;;;0.57;0.57;;;;;;;3.91;100.00;96457.97;29396;243;63009;-57
2023/04/21 02:27:12;;;;;;;0.60;0.60;;;;;;;3.90;100.00;96473.28;29395;237;64004;-57
2023/04/21 02:27:44;;;;;;;0.60;0.60;;;;;;;3.90;100.00;96462.53;29396;202;63008;-57
2023/04/21 02:28:15;;;;;;;0.50;0.50;;;;;;;3.89;100.00;96468.97;29396;223;63005;-57
2023/04/21 02:28:48;;;;;;;0.60;0.60;;;;;;;3.89;100.00;96466.28;29396;276;63009;-57
2023/04/21 02:29:19;;;;;;;0.60;0.60;;;;;;;3.88;100.00;96464.66;29396;229;63005;-57
2023/04/21 02:29:50;;;;;;;0.60;0.60;;;;;;;3.86;100.00;96464.13;29396;396;63009;-57
2023/04/21 02:30:22;;;;;;;0.60;0.60;;;;;;;3.86;100.00;96464.13;29396;274;63005;-57
2023/04/21 02:30:53;;;;;;;0.60;0.60;;;;;;;3.86;100.00;96461.44;29395;231;64013;-57
2023/04/21 02:31:24;;;;;;;0.60;0.60;;;;;;;3.84;100.00;96460.88;29396;198;63005;-57
2023/04/21 02:31:57;;;;;;;0.60;0.60;;;;;;;3.86;100.00;96458.75;29396;235;63009;-57
2023/04/21 02:32:28;;;;;;;0.60;0.60;;;;;;;3.85;100.00;96459.81;29396;232;63004;-57
2023/04/21 02:32:59;;;;;;;0.60;0.60;;;;;;;3.86;100.00;96461.44;29396;202;63009;-58
2023/04/21 02:33:31;;;;;;;0.60;0.60;;;;;;;3.85;100.00;96459.81;29396;267;63004;-58
2023/04/21 02:34:02;;;;;;;0.60;0.60;;;;;;;3.85;100.00;96459.81;29396;210;63009;-58
2023/04/21 02:34:33;;;;;;;0.60;0.60;;;;;;;3.85;100.00;96459.00;29396;257;63004;-57
2023/04/21 02:35:06;;;;;;;0.50;0.50;;;;;;;3.83;100.00;96461.97;29396;206;63008;-58
2023/04/21 02:35:37;;;;;;;0.60;0.60;;;;;;;3.84;100.00;96462.75;29396;336;63004;-56